PWSweather.com
Personal Weather Stations
Station Observations
KKYBOWLI8
Greystone Ii, Bowling Green, KY 42101

Greystone IiBowling Green, KY 42101

Lat: 36.9238, Lon: -86.5206

Elevation: 600

Station Type: Davis Vantage Pro2

Latest ConditionsUpdated 5:10:00 PM CST Sunday, Dec 16, 2018
Currently Today's Max Today's Min Today's Average
Temperature 48.5°F9.2°C 57.3°F14.1°C 42.1°F5.6°C 47.4°F8.6°C
Dew Point 48.5°F9.2°C 53.0°F11.7°C 42.1°F5.6°C 46.5°F8.1°C
Winds Calm Calm 3.9 mph -6.3 kmh - - 1.1 mph 1.8 kmh
Wind Gusts -- 12.0 mph19.3 kmh - -
Humidity 100% 100% 84% 97%
Pressure 30.18 in1022.0 mb 30.20 in1022.7 mb 29.99 in1015.6 mb -
Precipitation - 0.05 in1.3 mm - -
Hour Temp Dew Point Humidity Winds Wind Gusts Pressure Precip Precip Rate Daily Precip Total
05:10 PM 48.5°F9.2°C 48.5°F9.2°C 100% Calm Calm -- 30.18 in1022.0 mb 0.00 in0.0 mm 0.00 in0.0 mm 0.05 in1.3 mm
05:00 PM 49.4°F9.7°C 49.1°F9.5°C 99% Calm Calm -- 30.17 in1021.7 mb 0.00 in0.0 mm 0.00 in0.0 mm 0.05 in1.3 mm
04:50 PM 50.4°F10.2°C 49.3°F9.6°C 96% Calm Calm -- 30.17 in1021.7 mb 0.00 in0.0 mm 0.00 in0.0 mm 0.05 in1.3 mm
04:40 PM 51.4°F10.8°C 50.0°F10.0°C 95% Calm Calm -- 30.17 in1021.7 mb 0.00 in0.0 mm 0.00 in0.0 mm 0.05 in1.3 mm
04:30 PM 52.5°F11.4°C 50.5°F10.3°C 93% Calm Calm -- 30.17 in1021.7 mb 0.00 in0.0 mm 0.00 in0.0 mm 0.05 in1.3 mm
04:20 PM 53.5°F11.9°C 50.9°F10.5°C 91% Calm Calm 1.0 mph1.6 kmh 30.18 in1022.0 mb 0.00 in0.0 mm 0.00 in0.0 mm 0.05 in1.3 mm
04:10 PM 54.7°F12.6°C 51.5°F10.8°C 89% Calm Calm -- 30.17 in1021.7 mb 0.00 in0.0 mm 0.00 in0.0 mm 0.05 in1.3 mm
04:00 PM 56.2°F13.4°C 52.1°F11.2°C 86% Calm Calm -- 30.17 in1021.7 mb 0.00 in0.0 mm 0.00 in0.0 mm 0.05 in1.3 mm
03:50 PM 57.0°F13.9°C 52.2°F11.2°C 84% Calm Calm 4.0 mph6.4 kmh 30.17 in1021.7 mb 0.00 in0.0 mm 0.00 in0.0 mm 0.05 in1.3 mm
03:40 PM 57.3°F14.1°C 52.5°F11.4°C 84% Calm Calm 2.0 mph3.2 kmh 30.16 in1021.3 mb 0.00 in0.0 mm 0.00 in0.0 mm 0.05 in1.3 mm
03:30 PM 57.3°F14.1°C 52.8°F11.6°C 85% Calm Calm -- 30.16 in1021.3 mb 0.00 in0.0 mm 0.00 in0.0 mm 0.05 in1.3 mm
03:20 PM 57.3°F14.1°C 52.8°F11.6°C 85% Calm Calm 1.0 mph1.6 kmh 30.16 in1021.3 mb 0.00 in0.0 mm 0.00 in0.0 mm 0.05 in1.3 mm
03:10 PM 57.2°F14.0°C 53.0°F11.7°C 86% Calm Calm 2.0 mph3.2 kmh 30.16 in1021.3 mb 0.00 in0.0 mm 0.00 in0.0 mm 0.05 in1.3 mm
03:00 PM 56.9°F13.8°C 52.8°F11.6°C 86% Calm Calm 3.0 mph4.8 kmh 30.16 in1021.3 mb 0.00 in0.0 mm 0.00 in0.0 mm 0.05 in1.3 mm
02:50 PM 56.6°F13.7°C 52.8°F11.6°C 87% 0.2 mph W0.3 kmh W 4.0 mph6.4 kmh 30.16 in1021.3 mb 0.00 in0.0 mm 0.00 in0.0 mm 0.05 in1.3 mm
02:40 PM 56.3°F13.5°C 52.5°F11.4°C 87% 0.5 mph WSW0.8 kmh WSW 5.0 mph8.0 kmh 30.16 in1021.3 mb 0.00 in0.0 mm 0.00 in0.0 mm 0.05 in1.3 mm
02:30 PM 56.3°F13.5°C 52.5°F11.4°C 87% Calm Calm 4.0 mph6.4 kmh 30.16 in1021.3 mb 0.00 in0.0 mm 0.00 in0.0 mm 0.05 in1.3 mm
02:20 PM 56.2°F13.4°C 52.4°F11.3°C 87% Calm Calm 2.0 mph3.2 kmh 30.15 in1021.0 mb 0.00 in0.0 mm 0.00 in0.0 mm 0.05 in1.3 mm
02:10 PM 55.6°F13.1°C 52.1°F11.2°C 88% Calm Calm 1.0 mph1.6 kmh 30.15 in1021.0 mb 0.00 in0.0 mm 0.00 in0.0 mm 0.05 in1.3 mm
02:00 PM 54.7°F12.6°C 51.8°F11.0°C 90% 1.0 mph N1.6 kmh N 3.0 mph4.8 kmh 30.15 in1021.0 mb 0.00 in0.0 mm 0.00 in0.0 mm 0.05 in1.3 mm
01:50 PM 54.4°F12.4°C 51.5°F10.8°C 90% 1.9 mph N3.1 kmh N 7.0 mph11.3 kmh 30.15 in1021.0 mb 0.00 in0.0 mm 0.00 in0.0 mm 0.05 in1.3 mm
01:40 PM 54.4°F12.4°C 51.5°F10.8°C 90% 1.5 mph NNW2.4 kmh NNW 7.0 mph11.3 kmh 30.15 in1021.0 mb 0.00 in0.0 mm 0.00 in0.0 mm 0.05 in1.3 mm
01:30 PM 54.5°F12.5°C 51.6°F10.9°C 90% 1.0 mph NW1.6 kmh NW 6.0 mph9.7 kmh 30.15 in1021.0 mb 0.00 in0.0 mm 0.00 in0.0 mm 0.05 in1.3 mm
01:20 PM 54.5°F12.5°C 51.6°F10.9°C 90% 1.0 mph NNW1.6 kmh NNW 6.0 mph9.7 kmh 30.15 in1021.0 mb 0.00 in0.0 mm 0.00 in0.0 mm 0.05 in1.3 mm
01:10 PM 54.4°F12.4°C 51.8°F11.0°C 91% 1.0 mph WNW1.6 kmh WNW 6.0 mph9.7 kmh 30.15 in1021.0 mb 0.00 in0.0 mm 0.00 in0.0 mm 0.05 in1.3 mm
01:00 PM 54.1°F12.3°C 51.5°F10.8°C 91% 0.5 mph N0.8 kmh N 9.0 mph14.5 kmh 30.15 in1021.0 mb 0.00 in0.0 mm 0.00 in0.0 mm 0.05 in1.3 mm
12:50 PM 53.8°F12.1°C 51.5°F10.8°C 92% 0.8 mph W1.3 kmh W 5.0 mph8.0 kmh 30.15 in1021.0 mb 0.00 in0.0 mm 0.00 in0.0 mm 0.05 in1.3 mm
12:40 PM 53.2°F11.8°C 50.9°F10.5°C 92% 0.8 mph NNW1.3 kmh NNW 5.0 mph8.0 kmh 30.15 in1021.0 mb 0.00 in0.0 mm 0.00 in0.0 mm 0.05 in1.3 mm
12:30 PM 52.6°F11.4°C 50.9°F10.5°C 94% 1.0 mph NNW1.6 kmh NNW 6.0 mph9.7 kmh 30.15 in1021.0 mb 0.00 in0.0 mm 0.00 in0.0 mm 0.05 in1.3 mm
12:20 PM 52.3°F11.3°C 50.6°F10.3°C 94% 1.0 mph NNW1.6 kmh NNW 6.0 mph9.7 kmh 30.16 in1021.3 mb 0.00 in0.0 mm 0.00 in0.0 mm 0.05 in1.3 mm
12:10 PM 51.9°F11.1°C 50.2°F10.1°C 94% 1.2 mph NW1.9 kmh NW 5.0 mph8.0 kmh 30.16 in1021.3 mb 0.00 in0.0 mm 0.00 in0.0 mm 0.05 in1.3 mm
12:00 PM 51.4°F10.8°C 50.0°F10.0°C 95% 1.6 mph NW2.6 kmh NW 6.0 mph9.7 kmh 30.17 in1021.7 mb 0.00 in0.0 mm 0.00 in0.0 mm 0.05 in1.3 mm
11:50 AM 51.3°F10.7°C 49.9°F9.9°C 95% 1.0 mph NW1.6 kmh NW 7.0 mph11.3 kmh 30.17 in1021.7 mb 0.00 in0.0 mm 0.00 in0.0 mm 0.05 in1.3 mm
11:40 AM 50.7°F10.4°C 49.9°F9.9°C 97% 1.0 mph WNW1.6 kmh WNW 8.0 mph12.9 kmh 30.17 in1021.7 mb 0.00 in0.0 mm 0.00 in0.0 mm 0.05 in1.3 mm
11:30 AM 49.9°F9.9°C 49.4°F9.7°C 98% 1.1 mph NW1.8 kmh NW 6.0 mph9.7 kmh 30.17 in1021.7 mb 0.00 in0.0 mm 0.00 in0.0 mm 0.05 in1.3 mm
11:20 AM 49.4°F9.7°C 49.1°F9.5°C 99% 1.0 mph W1.6 kmh W 8.0 mph12.9 kmh 30.17 in1021.7 mb 0.00 in0.0 mm 0.00 in0.0 mm 0.05 in1.3 mm
11:10 AM 48.9°F9.4°C 48.6°F9.2°C 99% 0.7 mph NW1.1 kmh NW 6.0 mph9.7 kmh 30.17 in1021.7 mb 0.00 in0.0 mm 0.00 in0.0 mm 0.05 in1.3 mm
11:00 AM 48.5°F9.2°C 48.5°F9.2°C 100% 1.4 mph WNW2.3 kmh WNW 6.0 mph9.7 kmh 30.17 in1021.7 mb 0.00 in0.0 mm 0.00 in0.0 mm 0.05 in1.3 mm
10:50 AM 47.7°F8.7°C 47.7°F8.7°C 100% 1.0 mph WSW1.6 kmh WSW 8.0 mph12.9 kmh 30.18 in1022.0 mb 0.00 in0.0 mm 0.00 in0.0 mm 0.05 in1.3 mm
10:40 AM 47.6°F8.7°C 47.6°F8.7°C 100% 1.1 mph W1.8 kmh W 6.0 mph9.7 kmh 30.18 in1022.0 mb 0.00 in0.0 mm 0.00 in0.0 mm 0.05 in1.3 mm
10:30 AM 46.7°F8.2°C 46.7°F8.2°C 100% 1.0 mph WSW1.6 kmh WSW 6.0 mph9.7 kmh 30.18 in1022.0 mb 0.00 in0.0 mm 0.00 in0.0 mm 0.05 in1.3 mm
10:20 AM 45.8°F7.7°C 45.8°F7.7°C 100% 0.4 mph WNW0.6 kmh WNW 6.0 mph9.7 kmh 30.18 in1022.0 mb 0.00 in0.0 mm 0.00 in0.0 mm 0.05 in1.3 mm
10:10 AM 45.4°F7.4°C 45.4°F7.4°C 100% 0.6 mph WNW1.0 kmh WNW 5.0 mph8.0 kmh 30.19 in1022.4 mb 0.00 in0.0 mm 0.00 in0.0 mm 0.05 in1.3 mm
10:00 AM 44.8°F7.1°C 44.8°F7.1°C 100% 0.5 mph W0.8 kmh W 4.0 mph6.4 kmh 30.19 in1022.4 mb 0.00 in0.0 mm 0.00 in0.0 mm 0.05 in1.3 mm
09:50 AM 44.4°F6.9°C 44.4°F6.9°C 100% 0.7 mph WSW1.1 kmh WSW 5.0 mph8.0 kmh 30.19 in1022.4 mb 0.00 in0.0 mm 0.00 in0.0 mm 0.05 in1.3 mm
09:40 AM 43.9°F6.6°C 43.9°F6.6°C 100% Calm Calm 5.0 mph8.0 kmh 30.19 in1022.4 mb 0.00 in0.0 mm 0.00 in0.0 mm 0.05 in1.3 mm
09:30 AM 43.9°F6.6°C 43.9°F6.6°C 100% 0.5 mph NW0.8 kmh NW 4.0 mph6.4 kmh 30.20 in1022.7 mb 0.00 in0.0 mm 0.00 in0.0 mm 0.05 in1.3 mm
09:20 AM 43.8°F6.6°C 43.8°F6.6°C 100% 1.0 mph NW1.6 kmh NW 5.0 mph8.0 kmh 30.20 in1022.7 mb 0.00 in0.0 mm 0.00 in0.0 mm 0.05 in1.3 mm
09:10 AM 43.9°F6.6°C 43.9°F6.6°C 100% 1.0 mph NW1.6 kmh NW 7.0 mph11.3 kmh 30.20 in1022.7 mb 0.00 in0.0 mm 0.00 in0.0 mm 0.05 in1.3 mm
09:00 AM 43.9°F6.6°C 43.9°F6.6°C 100% 1.0 mph NW1.6 kmh NW 5.0 mph8.0 kmh 30.19 in1022.4 mb 0.00 in0.0 mm 0.00 in0.0 mm 0.05 in1.3 mm
08:50 AM 43.6°F6.4°C 43.6°F6.4°C 100% 1.0 mph NW1.6 kmh NW 6.0 mph9.7 kmh 30.19 in1022.4 mb 0.00 in0.0 mm 0.00 in0.0 mm 0.05 in1.3 mm
08:40 AM 43.4°F6.3°C 43.4°F6.3°C 100% 1.0 mph N1.6 kmh N 6.0 mph9.7 kmh 30.18 in1022.0 mb 0.00 in0.0 mm 0.00 in0.0 mm 0.05 in1.3 mm
08:30 AM 42.9°F6.1°C 42.9°F6.1°C 100% 1.0 mph NNW1.6 kmh NNW 6.0 mph9.7 kmh 30.18 in1022.0 mb 0.00 in0.0 mm 0.00 in0.0 mm 0.05 in1.3 mm
08:20 AM 42.8°F6.0°C 42.8°F6.0°C 100% 0.5 mph NW0.8 kmh NW 5.0 mph8.0 kmh 30.18 in1022.0 mb 0.00 in0.0 mm 0.00 in0.0 mm 0.05 in1.3 mm
08:10 AM 42.5°F5.8°C 42.5°F5.8°C 100% Calm Calm 1.0 mph1.6 kmh 30.18 in1022.0 mb 0.00 in0.0 mm 0.00 in0.0 mm 0.05 in1.3 mm
08:00 AM 42.4°F5.8°C 42.4°F5.8°C 100% Calm Calm 4.0 mph6.4 kmh 30.17 in1021.7 mb 0.00 in0.0 mm 0.00 in0.0 mm 0.05 in1.3 mm
07:50 AM 42.2°F5.7°C 42.2°F5.7°C 100% 0.4 mph NW0.6 kmh NW 4.0 mph6.4 kmh 30.17 in1021.7 mb 0.00 in0.0 mm 0.00 in0.0 mm 0.05 in1.3 mm
07:40 AM 42.1°F5.6°C 42.1°F5.6°C 100% 0.8 mph NW1.3 kmh NW 5.0 mph8.0 kmh 30.16 in1021.3 mb 0.00 in0.0 mm 0.00 in0.0 mm 0.05 in1.3 mm
07:30 AM 42.1°F5.6°C 42.1°F5.6°C 100% 1.0 mph WNW1.6 kmh WNW 5.0 mph8.0 kmh 30.16 in1021.3 mb 0.00 in0.0 mm 0.00 in0.0 mm 0.05 in1.3 mm
07:20 AM 42.1°F5.6°C 42.1°F5.6°C 100% 1.0 mph NW1.6 kmh NW 5.0 mph8.0 kmh 30.16 in1021.3 mb 0.00 in0.0 mm 0.00 in0.0 mm 0.05 in1.3 mm
07:10 AM 42.2°F5.7°C 42.2°F5.7°C 100% 1.0 mph W1.6 kmh W 6.0 mph9.7 kmh 30.16 in1021.3 mb 0.00 in0.0 mm 0.00 in0.0 mm 0.05 in1.3 mm
07:00 AM 42.4°F5.8°C 42.4°F5.8°C 100% 1.0 mph WNW1.6 kmh WNW 5.0 mph8.0 kmh 30.15 in1021.0 mb 0.00 in0.0 mm 0.00 in0.0 mm 0.05 in1.3 mm
06:50 AM 42.6°F5.9°C 42.6°F5.9°C 100% 1.0 mph NW1.6 kmh NW 6.0 mph9.7 kmh 30.15 in1021.0 mb 0.00 in0.0 mm 0.00 in0.0 mm 0.05 in1.3 mm
06:40 AM 42.8°F6.0°C 42.8°F6.0°C 100% 1.0 mph NW1.6 kmh NW 6.0 mph9.7 kmh 30.15 in1021.0 mb 0.00 in0.0 mm 0.00 in0.0 mm 0.05 in1.3 mm
06:30 AM 42.8°F6.0°C 42.8°F6.0°C 100% 1.0 mph NW1.6 kmh NW 6.0 mph9.7 kmh 30.14 in1020.7 mb 0.00 in0.0 mm 0.00 in0.0 mm 0.05 in1.3 mm
06:20 AM 42.8°F6.0°C 42.8°F6.0°C 100% 1.0 mph NW1.6 kmh NW 6.0 mph9.7 kmh 30.14 in1020.7 mb 0.00 in0.0 mm 0.00 in0.0 mm 0.05 in1.3 mm
06:10 AM 42.6°F5.9°C 42.6°F5.9°C 100% 0.3 mph WNW0.5 kmh WNW 5.0 mph8.0 kmh 30.13 in1020.3 mb 0.00 in0.0 mm 0.00 in0.0 mm 0.05 in1.3 mm
06:00 AM 42.6°F5.9°C 42.6°F5.9°C 100% 0.2 mph WNW0.3 kmh WNW 4.0 mph6.4 kmh 30.12 in1020.0 mb 0.00 in0.0 mm 0.00 in0.0 mm 0.05 in1.3 mm
05:50 AM 42.6°F5.9°C 42.6°F5.9°C 100% 0.9 mph NW1.4 kmh NW 5.0 mph8.0 kmh 30.12 in1020.0 mb 0.00 in0.0 mm 0.00 in0.0 mm 0.05 in1.3 mm
05:40 AM 42.6°F5.9°C 42.6°F5.9°C 100% Calm Calm 4.0 mph6.4 kmh 30.11 in1019.6 mb 0.00 in0.0 mm 0.00 in0.0 mm 0.05 in1.3 mm
05:30 AM 42.6°F5.9°C 42.6°F5.9°C 100% Calm Calm 3.0 mph4.8 kmh 30.10 in1019.3 mb 0.00 in0.0 mm 0.00 in0.0 mm 0.05 in1.3 mm
05:20 AM 42.8°F6.0°C 42.8°F6.0°C 100% Calm Calm 3.0 mph4.8 kmh 30.10 in1019.3 mb 0.00 in0.0 mm 0.00 in0.0 mm 0.05 in1.3 mm
05:10 AM 42.8°F6.0°C 42.8°F6.0°C 100% Calm Calm 3.0 mph4.8 kmh 30.10 in1019.3 mb 0.00 in0.0 mm 0.00 in0.0 mm 0.05 in1.3 mm
05:00 AM 42.8°F6.0°C 42.8°F6.0°C 100% 0.9 mph N1.4 kmh N 3.0 mph4.8 kmh 30.10 in1019.3 mb 0.00 in0.0 mm 0.00 in0.0 mm 0.05 in1.3 mm
04:50 AM 42.9°F6.1°C 42.9°F6.1°C 100% 1.1 mph N1.8 kmh N 6.0 mph9.7 kmh 30.09 in1019.0 mb 0.00 in0.0 mm 0.00 in0.0 mm 0.05 in1.3 mm
04:40 AM 42.9°F6.1°C 42.9°F6.1°C 100% 1.0 mph N1.6 kmh N 6.0 mph9.7 kmh 30.09 in1019.0 mb 0.00 in0.0 mm 0.00 in0.0 mm 0.05 in1.3 mm
04:30 AM 42.9°F6.1°C 42.9°F6.1°C 100% 2.0 mph N3.2 kmh N 5.0 mph8.0 kmh 30.09 in1019.0 mb 0.00 in0.0 mm 0.00 in0.0 mm 0.05 in1.3 mm
04:20 AM 42.9°F6.1°C 42.9°F6.1°C 100% 1.6 mph NNW2.6 kmh NNW 7.0 mph11.3 kmh 30.08 in1018.6 mb 0.00 in0.0 mm 0.00 in0.0 mm 0.05 in1.3 mm
04:10 AM 42.9°F6.1°C 42.9°F6.1°C 100% 2.0 mph NNW3.2 kmh NNW 7.0 mph11.3 kmh 30.08 in1018.6 mb 0.00 in0.0 mm 0.00 in0.0 mm 0.05 in1.3 mm
04:00 AM 42.9°F6.1°C 42.9°F6.1°C 100% 2.6 mph N4.2 kmh N 8.0 mph12.9 kmh 30.07 in1018.3 mb 0.00 in0.0 mm 0.00 in0.0 mm 0.05 in1.3 mm
03:50 AM 42.9°F6.1°C 42.9°F6.1°C 100% 2.1 mph NNW3.4 kmh NNW 10.0 mph16.1 kmh 30.07 in1018.3 mb 0.00 in0.0 mm 0.00 in0.0 mm 0.05 in1.3 mm
03:40 AM 43.1°F6.2°C 43.1°F6.2°C 100% 1.9 mph NNW3.1 kmh NNW 7.0 mph11.3 kmh 30.07 in1018.3 mb 0.00 in0.0 mm 0.00 in0.0 mm 0.05 in1.3 mm
03:30 AM 43.2°F6.2°C 43.2°F6.2°C 100% 1.2 mph NW1.9 kmh NW 6.0 mph9.7 kmh 30.07 in1018.3 mb 0.00 in0.0 mm 0.00 in0.0 mm 0.05 in1.3 mm
03:20 AM 43.2°F6.2°C 43.2°F6.2°C 100% 2.0 mph NNW3.2 kmh NNW 7.0 mph11.3 kmh 30.07 in1018.3 mb 0.00 in0.0 mm 0.00 in0.0 mm 0.05 in1.3 mm
03:10 AM 43.2°F6.2°C 43.2°F6.2°C 100% 3.0 mph NNW4.8 kmh NNW 9.0 mph14.5 kmh 30.06 in1017.9 mb 0.00 in0.0 mm 0.00 in0.0 mm 0.05 in1.3 mm
03:00 AM 43.2°F6.2°C 43.2°F6.2°C 100% 3.6 mph N5.8 kmh N 10.0 mph16.1 kmh 30.06 in1017.9 mb 0.01 in0.3 mm 0.00 in0.0 mm 0.05 in1.3 mm
02:50 AM 43.2°F6.2°C 43.2°F6.2°C 100% 3.8 mph NNW6.1 kmh NNW 9.0 mph14.5 kmh 30.05 in1017.6 mb 0.01 in0.3 mm 0.00 in0.0 mm 0.05 in1.3 mm
02:40 AM 43.4°F6.3°C 43.4°F6.3°C 100% 1.7 mph N2.7 kmh N 9.0 mph14.5 kmh 30.05 in1017.6 mb 0.01 in0.3 mm 0.00 in0.0 mm 0.05 in1.3 mm
02:30 AM 43.6°F6.4°C 43.6°F6.4°C 100% 2.5 mph NNW4.0 kmh NNW 6.0 mph9.7 kmh 30.05 in1017.6 mb 0.01 in0.3 mm 0.00 in0.0 mm 0.05 in1.3 mm
02:20 AM 43.8°F6.6°C 43.8°F6.6°C 100% 3.0 mph NNW4.8 kmh NNW 9.0 mph14.5 kmh 30.05 in1017.6 mb 0.01 in0.3 mm 0.00 in0.0 mm 0.05 in1.3 mm
02:10 AM 44.1°F6.7°C 44.1°F6.7°C 100% 2.8 mph NNW4.5 kmh NNW 10.0 mph16.1 kmh 30.04 in1017.3 mb 0.01 in0.3 mm 0.06 in1.5 mm 0.05 in1.3 mm
02:00 AM 44.2°F6.8°C 44.2°F6.8°C 100% 3.7 mph NNW6.0 kmh NNW 9.0 mph14.5 kmh 30.03 in1016.9 mb 0.00 in0.0 mm 0.00 in0.0 mm 0.04 in1.0 mm
01:50 AM 44.4°F6.9°C 44.4°F6.9°C 100% 2.9 mph NNW4.7 kmh NNW 12.0 mph19.3 kmh 30.03 in1016.9 mb 0.00 in0.0 mm 0.00 in0.0 mm 0.04 in1.0 mm
01:40 AM 44.6°F7.0°C 44.6°F7.0°C 100% 2.7 mph NW4.3 kmh NW 8.0 mph12.9 kmh 30.03 in1016.9 mb 0.00 in0.0 mm 0.00 in0.0 mm 0.04 in1.0 mm
01:30 AM 44.9°F7.2°C 44.9°F7.2°C 100% 2.4 mph NW3.9 kmh NW 7.0 mph11.3 kmh 30.02 in1016.6 mb 0.00 in0.0 mm 0.00 in0.0 mm 0.04 in1.0 mm
01:20 AM 45.2°F7.3°C 45.2°F7.3°C 100% 2.9 mph NW4.7 kmh NW 7.0 mph11.3 kmh 30.02 in1016.6 mb 0.02 in0.5 mm 0.00 in0.0 mm 0.04 in1.0 mm
01:10 AM 45.5°F7.5°C 45.5°F7.5°C 100% 2.0 mph NW3.2 kmh NW 9.0 mph14.5 kmh 30.01 in1016.3 mb 0.03 in0.8 mm 0.00 in0.0 mm 0.04 in1.0 mm
01:00 AM 45.8°F7.7°C 45.8°F7.7°C 100% 2.7 mph NW4.3 kmh NW 7.0 mph11.3 kmh 30.01 in1016.3 mb 0.04 in1.0 mm 0.00 in0.0 mm 0.04 in1.0 mm
12:50 AM 46.0°F7.8°C 46.0°F7.8°C 100% 3.9 mph NNW6.3 kmh NNW 10.0 mph16.1 kmh 30.01 in1016.3 mb 0.05 in1.3 mm 0.00 in0.0 mm 0.04 in1.0 mm
12:40 AM 46.5°F8.1°C 46.5°F8.1°C 100% 3.1 mph NNW5.0 kmh NNW 12.0 mph19.3 kmh 30.00 in1015.9 mb 0.05 in1.3 mm 0.00 in0.0 mm 0.04 in1.0 mm
12:30 AM 47.4°F8.6°C 47.4°F8.6°C 100% 1.7 mph NW2.7 kmh NW 9.0 mph14.5 kmh 30.00 in1015.9 mb 0.06 in1.5 mm 0.12 in3.0 mm 0.04 in1.0 mm
12:20 AM 47.7°F8.7°C 47.7°F8.7°C 100% 1.0 mph NW1.6 kmh NW 7.0 mph11.3 kmh 29.99 in1015.6 mb 0.04 in1.0 mm 0.06 in1.5 mm 0.02 in0.5 mm
12:10 AM 47.9°F8.8°C 47.9°F8.8°C 100% 1.1 mph NW1.8 kmh NW 7.0 mph11.3 kmh 29.99 in1015.6 mb 0.03 in0.8 mm 0.18 in4.6 mm 0.01 in0.3 mm